Time;durP1;ratioP1;P1;durP2;ratioP2;P2;SDS_P1;SDS_P2;PMS_P1;PMS_P2;Temp;Humidity;BMP_temperature;BMP_pressure;BME280_temperature;BME280_humidity;BME280_pressure;Samples;Min_cycle;Max_cycle;Signal;HPM_P1;HPM_P2
2022/07/26 00:00:33;;;;;;;10.30;2.40;;;;;;;;;;4938413;28;20122;-71
2022/07/26 00:02:58;;;;;;;14.82;2.90;;;;;;;;;;4932297;28;22475;-69
2022/07/26 00:05:29;;;;;;;11.73;2.50;;;;;;;;;;4932793;28;20156;-70
2022/07/26 00:08:09;;;;;;;11.82;2.65;;;;;;;;;;4933258;28;20142;-70
2022/07/26 00:10:35;;;;;;;12.95;2.90;;;;;;;;;;4935900;28;20121;-71
2022/07/26 00:13:02;;;;;;;12.98;2.53;;;;;;;;;;4932786;28;20031;-72
2022/07/26 00:15:28;;;;;;;9.13;2.30;;;;;;;;;;4932702;28;20046;-70
2022/07/26 00:17:53;;;;;;;15.05;2.92;;;;;;;;;;4933614;28;20043;-70
2022/07/26 00:20:19;;;;;;;13.35;2.70;;;;;;;;;;4932440;28;20069;-71
2022/07/26 00:22:44;;;;;;;15.73;2.42;;;;;;;;;;4932849;28;20049;-69
2022/07/26 00:25:09;;;;;;;17.02;2.78;;;;;;;;;;4947139;28;20038;-69
2022/07/26 00:27:40;;;;;;;10.18;2.15;;;;;;;;;;4933671;28;20145;-68
2022/07/26 00:30:08;;;;;;;13.48;2.83;;;;;;;;;;4942863;28;20034;-70
2022/07/26 00:32:34;;;;;;;11.20;2.13;;;;;;;;;;4936416;28;20707;-73
2022/07/26 00:34:59;;;;;;;9.75;2.53;;;;;;;;;;4935405;28;20046;-71
2022/07/26 00:37:25;;;;;;;14.15;2.30;;;;;;;;;;4936327;28;20058;-70
2022/07/26 00:39:50;;;;;;;10.77;2.15;;;;;;;;;;4936447;28;22406;-70
2022/07/26 00:42:15;;;;;;;11.35;2.67;;;;;;;;;;4936593;28;20031;-69
2022/07/26 00:44:44;;;;;;;12.70;2.42;;;;;;;;;;4936131;28;20042;-70
2022/07/26 00:47:09;;;;;;;13.88;2.10;;;;;;;;;;4936725;28;20034;-71
2022/07/26 00:49:34;;;;;;;12.85;2.35;;;;;;;;;;4936821;28;20547;-72
2022/07/26 00:52:00;;;;;;;12.35;2.30;;;;;;;;;;4934812;28;20122;-70
2022/07/26 00:54:25;;;;;;;13.63;2.30;;;;;;;;;;4936501;28;20030;-71
2022/07/26 00:56:52;;;;;;;17.30;2.65;;;;;;;;;;4933773;28;20213;-70
2022/07/26 00:59:17;;;;;;;14.75;2.30;;;;;;;;;;4936563;28;20047;-70
2022/07/26 01:01:42;;;;;;;10.90;2.38;;;;;;;;;;4950438;28;20043;-72
2022/07/26 01:04:10;;;;;;;10.50;2.30;;;;;;;;;;4936155;28;20667;-71
2022/07/26 01:06:35;;;;;;;15.50;2.22;;;;;;;;;;4933757;28;20038;-71
2022/07/26 01:09:01;;;;;;;10.23;2.38;;;;;;;;;;4935849;28;20633;-69
2022/07/26 01:11:27;;;;;;;8.65;2.40;;;;;;;;;;4935725;28;20039;-70
2022/07/26 01:13:52;;;;;;;14.95;2.58;;;;;;;;;;4949960;28;22222;-71
2022/07/26 01:16:17;;;;;;;10.95;2.17;;;;;;;;;;4943932;28;20038;-71
2022/07/26 01:18:43;;;;;;;9.18;1.73;;;;;;;;;;4934943;28;20047;-70
2022/07/26 01:21:09;;;;;;;13.60;2.70;;;;;;;;;;4935115;28;20100;-71
2022/07/26 01:23:35;;;;;;;9.77;2.00;;;;;;;;;;4935658;28;20042;-68
2022/07/26 01:26:00;;;;;;;12.02;2.60;;;;;;;;;;4934105;28;20810;-71
2022/07/26 01:28:26;;;;;;;10.48;2.15;;;;;;;;;;4936251;28;20853;-71
2022/07/26 01:30:51;;;;;;;10.25;2.33;;;;;;;;;;4935486;28;20094;-70
2022/07/26 01:33:18;;;;;;;12.52;2.80;;;;;;;;;;4934955;28;20042;-70
2022/07/26 01:35:44;;;;;;;15.27;2.60;;;;;;;;;;4927474;28;20062;-69
2022/07/26 01:38:10;;;;;;;13.05;2.72;;;;;;;;;;4935866;28;20053;-70
2022/07/26 01:40:37;;;;;;;12.63;2.53;;;;;;;;;;4934855;28;20144;-72
2022/07/26 01:43:02;;;;;;;9.00;3.03;;;;;;;;;;4935023;28;20113;-71
2022/07/26 01:45:28;;;;;;;11.82;2.70;;;;;;;;;;4933347;28;20043;-71
2022/07/26 01:47:55;;;;;;;9.70;2.33;;;;;;;;;;4934796;28;20775;-71
2022/07/26 01:50:21;;;;;;;7.95;2.70;;;;;;;;;;4950101;28;20625;-71
2022/07/26 01:52:46;;;;;;;9.82;2.70;;;;;;;;;;4935735;28;20093;-71
2022/07/26 01:55:14;;;;;;;8.48;2.33;;;;;;;;;;4935487;28;20104;-71
2022/07/26 01:57:39;;;;;;;13.18;2.90;;;;;;;;;;4942593;28;20038;-70
2022/07/26 02:00:06;;;;;;;10.30;2.60;;;;;;;;;;4932306;28;20038;-71
2022/07/26 02:02:31;;;;;;;5.70;2.47;;;;;;;;;;4934934;28;20046;-70
2022/07/26 02:05:00;;;;;;;15.25;3.05;;;;;;;;;;4932921;28;20916;-70
2022/07/26 02:07:26;;;;;;;10.57;2.60;;;;;;;;;;4935599;28;20797;-71
2022/07/26 02:09:51;;;;;;;14.60;2.45;;;;;;;;;;4935952;28;20039;-71
2022/07/26 02:12:17;;;;;;;9.70;2.40;;;;;;;;;;4935071;28;20907;-70
2022/07/26 02:14:42;;;;;;;13.73;2.90;;;;;;;;;;4935031;28;20045;-70
2022/07/26 02:17:10;;;;;;;11.20;2.88;;;;;;;;;;4941495;28;20041;-69
2022/07/26 02:19:35;;;;;;;8.60;2.45;;;;;;;;;;4948420;28;20129;-69
2022/07/26 02:22:01;;;;;;;13.30;3.40;;;;;;;;;;4933486;28;20046;-71
2022/07/26 02:24:29;;;;;;;7.85;2.42;;;;;;;;;;4934007;28;20049;-72
2022/07/26 02:26:55;;;;;;;14.13;3.05;;;;;;;;;;4932656;28;20061;-70
2022/07/26 02:29:20;;;;;;;13.43;2.40;;;;;;;;;;4934837;28;20035;-71
2022/07/26 02:31:46;;;;;;;11.70;2.63;;;;;;;;;;4933959;28;20038;-72
2022/07/26 02:34:14;;;;;;;8.23;2.50;;;;;;;;;;4948066;28;20507;-72
2022/07/26 02:36:39;;;;;;;17.67;3.20;;;;;;;;;;4923981;28;20042;-70
2022/07/26 02:39:07;;;;;;;8.05;2.65;;;;;;;;;;4932352;28;20050;-69
2022/07/26 02:41:32;;;;;;;14.40;3.58;;;;;;;;;;4933855;28;20044;-69
2022/07/26 02:43:57;;;;;;;16.45;3.65;;;;;;;;;;4933685;28;20026;-69
2022/07/26 02:46:23;;;;;;;13.02;3.47;;;;;;;;;;4934576;28;20229;-69
2022/07/26 02:48:49;;;;;;;15.25;3.05;;;;;;;;;;4933757;28;20876;-68
2022/07/26 02:51:14;;;;;;;15.68;3.38;;;;;;;;;;4932831;28;20091;-69
2022/07/26 02:53:40;;;;;;;13.10;2.67;;;;;;;;;;4933371;28;20509;-68
2022/07/26 02:56:05;;;;;;;10.13;2.70;;;;;;;;;;4930782;28;20047;-67
2022/07/26 02:58:31;;;;;;;16.52;2.88;;;;;;;;;;4934096;28;20054;-68
2022/07/26 03:00:57;;;;;;;15.38;3.13;;;;;;;;;;4933911;28;20129;-67
2022/07/26 03:03:22;;;;;;;16.65;2.85;;;;;;;;;;4933778;28;20115;-67
2022/07/26 03:05:50;;;;;;;17.42;3.28;;;;;;;;;;4937961;28;20041;-67
2022/07/26 03:08:15;;;;;;;15.43;2.60;;;;;;;;;;4933627;28;20866;-67
2022/07/26 03:10:40;;;;;;;15.45;2.40;;;;;;;;;;4933159;28;20034;-67
2022/07/26 03:13:06;;;;;;;10.13;1.90;;;;;;;;;;4933293;28;20038;-67
2022/07/26 03:15:31;;;;;;;7.57;2.30;;;;;;;;;;4934450;28;20067;-67
2022/07/26 03:17:57;;;;;;;10.52;1.80;;;;;;;;;;4933426;28;20138;-66
2022/07/26 03:20:22;;;;;;;11.13;2.08;;;;;;;;;;4933653;28;20077;-66
2022/07/26 03:22:47;;;;;;;14.80;2.15;;;;;;;;;;4933280;28;20128;-67
2022/07/26 03:25:13;;;;;;;13.57;2.00;;;;;;;;;;4933328;28;20094;-68
2022/07/26 03:27:39;;;;;;;9.73;1.77;;;;;;;;;;4933101;28;20041;-68
2022/07/26 03:30:05;;;;;;;13.77;2.05;;;;;;;;;;4932192;28;20027;-68
2022/07/26 03:32:30;;;;;;;13.82;2.47;;;;;;;;;;4933965;28;20691;-69
2022/07/26 03:34:55;;;;;;;12.40;1.88;;;;;;;;;;4931773;28;20034;-67
2022/07/26 03:37:21;;;;;;;13.63;1.50;;;;;;;;;;4934059;28;20129;-66
2022/07/26 03:39:47;;;;;;;8.70;1.73;;;;;;;;;;4920073;28;20058;-66
2022/07/26 03:42:12;;;;;;;17.83;1.92;;;;;;;;;;4936886;28;21201;-68
2022/07/26 03:44:38;;;;;;;13.32;2.17;;;;;;;;;;4933148;28;20824;-68
2022/07/26 03:47:03;;;;;;;10.40;1.65;;;;;;;;;;4933236;28;20043;-69
2022/07/26 03:49:29;;;;;;;14.93;2.50;;;;;;;;;;4919193;28;20157;-69
2022/07/26 03:51:56;;;;;;;11.73;1.75;;;;;;;;;;4922494;28;20027;-69
2022/07/26 03:54:21;;;;;;;12.18;2.08;;;;;;;;;;4932884;28;20601;-69
2022/07/26 03:56:47;;;;;;;14.55;2.70;;;;;;;;;;4933969;28;20039;-68
2022/07/26 03:59:12;;;;;;;12.20;1.77;;;;;;;;;;4933916;28;20647;-69
2022/07/26 04:01:42;;;;;;;12.98;2.03;;;;;;;;;;4933885;28;20092;-70
2022/07/26 04:04:08;;;;;;;8.93;1.70;;;;;;;;;;4937256;28;20030;-69
2022/07/26 04:06:33;;;;;;;10.05;2.38;;;;;;;;;;4935800;28;20683;-69
2022/07/26 04:09:02;;;;;;;10.07;1.50;;;;;;;;;;4933898;28;20827;-69
2022/07/26 04:11:27;;;;;;;10.52;1.73;;;;;;;;;;4941259;28;20035;-69
2022/07/26 04:13:53;;;;;;;10.00;1.58;;;;;;;;;;4943406;28;20083;-70
2022/07/26 04:16:18;;;;;;;11.50;2.25;;;;;;;;;;4923909;28;20038;-69
2022/07/26 04:18:44;;;;;;;11.82;1.77;;;;;;;;;;4935564;28;20810;-69
2022/07/26 04:21:09;;;;;;;12.93;1.98;;;;;;;;;;4936582;28;20045;-69
2022/07/26 04:23:35;;;;;;;17.95;2.53;;;;;;;;;;4935345;28;20035;-68
2022/07/26 04:26:03;;;;;;;11.32;1.67;;;;;;;;;;4932347;28;20038;-68
2022/07/26 04:28:29;;;;;;;14.88;1.98;;;;;;;;;;4933274;28;20073;-68
2022/07/26 04:30:58;;;;;;;8.90;1.58;;;;;;;;;;4937657;28;20043;-69
2022/07/26 04:33:25;;;;;;;11.27;2.10;;;;;;;;;;4946800;28;20047;-69
2022/07/26 04:35:51;;;;;;;15.05;2.13;;;;;;;;;;4931844;28;20034;-69
2022/07/26 04:38:17;;;;;;;13.18;1.70;;;;;;;;;;4947193;28;20805;-71
2022/07/26 04:40:42;;;;;;;13.68;1.63;;;;;;;;;;4932541;28;20335;-69
2022/07/26 04:43:08;;;;;;;14.70;1.67;;;;;;;;;;4932374;28;20039;-70
2022/07/26 04:45:33;;;;;;;11.82;1.58;;;;;;;;;;4935232;28;20034;-70
2022/07/26 04:47:58;;;;;;;11.15;1.90;;;;;;;;;;4932007;28;20035;-70
2022/07/26 04:50:24;;;;;;;7.30;1.30;;;;;;;;;;4946798;28;20035;-68
2022/07/26 04:52:49;;;;;;;15.52;1.38;;;;;;;;;;4932095;28;20184;-69
2022/07/26 04:55:15;;;;;;;8.23;1.90;;;;;;;;;;4932936;28;20035;-69
2022/07/26 04:57:41;;;;;;;10.90;1.25;;;;;;;;;;4931627;28;20113;-69
2022/07/26 05:00:13;;;;;;;7.68;1.25;;;;;;;;;;4932062;28;20061;-71
2022/07/26 05:02:38;;;;;;;9.30;1.38;;;;;;;;;;4945228;28;20251;-70
2022/07/26 05:05:06;;;;;;;9.43;1.60;;;;;;;;;;4932990;28;20132;-68
2022/07/26 05:07:38;;;;;;;14.65;1.65;;;;;;;;;;4931721;28;20551;-69
2022/07/26 05:10:06;;;;;;;7.57;1.25;;;;;;;;;;4932017;28;20108;-70
2022/07/26 05:12:32;;;;;;;13.05;1.50;;;;;;;;;;4931668;28;20770;-70
2022/07/26 05:14:57;;;;;;;9.35;1.60;;;;;;;;;;4932573;28;20035;-70
2022/07/26 05:17:24;;;;;;;9.07;1.67;;;;;;;;;;4929056;28;20031;-70
2022/07/26 05:19:49;;;;;;;9.32;1.38;;;;;;;;;;4932587;28;20043;-70
2022/07/26 05:22:18;;;;;;;11.32;1.27;;;;;;;;;;4931368;28;20494;-69
2022/07/26 05:24:43;;;;;;;10.60;1.33;;;;;;;;;;4931983;28;20066;-70
2022/07/26 05:27:08;;;;;;;10.05;1.40;;;;;;;;;;4930197;28;20072;-69
2022/07/26 05:29:34;;;;;;;9.90;1.60;;;;;;;;;;4930370;28;20030;-70
2022/07/26 05:31:59;;;;;;;11.00;1.40;;;;;;;;;;4931763;28;20501;-71
2022/07/26 05:34:24;;;;;;;8.27;1.10;;;;;;;;;;4932100;28;20356;-70
2022/07/26 05:36:50;;;;;;;7.45;1.02;;;;;;;;;;4936393;28;20352;-70
2022/07/26 05:39:17;;;;;;;7.60;1.05;;;;;;;;;;4930459;28;20140;-68
2022/07/26 05:41:42;;;;;;;9.57;1.00;;;;;;;;;;4936672;28;20045;-70
2022/07/26 05:44:08;;;;;;;12.73;1.50;;;;;;;;;;4927558;28;20332;-69
2022/07/26 05:46:36;;;;;;;6.38;1.50;;;;;;;;;;4938802;28;20137;-70
2022/07/26 05:49:01;;;;;;;9.00;1.17;;;;;;;;;;4935574;28;20627;-71
2022/07/26 05:51:29;;;;;;;8.65;1.08;;;;;;;;;;4930519;28;20031;-72
2022/07/26 05:53:54;;;;;;;10.40;1.30;;;;;;;;;;4930994;28;20045;-70
2022/07/26 05:56:20;;;;;;;9.98;1.27;;;;;;;;;;4946124;28;20031;-70
2022/07/26 05:58:45;;;;;;;8.57;1.20;;;;;;;;;;4939106;28;20089;-69
2022/07/26 06:01:10;;;;;;;6.57;1.00;;;;;;;;;;4936308;28;20602;-70
2022/07/26 06:03:36;;;;;;;6.88;1.25;;;;;;;;;;4929264;28;20037;-69
2022/07/26 06:06:03;;;;;;;9.75;1.30;;;;;;;;;;4932220;28;20673;-71
2022/07/26 06:08:29;;;;;;;12.70;1.67;;;;;;;;;;4928191;28;20849;-69
2022/07/26 06:10:55;;;;;;;10.95;1.58;;;;;;;;;;4930481;28;20038;-68
2022/07/26 06:13:22;;;;;;;10.43;1.50;;;;;;;;;;4943926;28;21031;-67
2022/07/26 06:15:48;;;;;;;13.98;1.52;;;;;;;;;;4931716;28;20423;-68
2022/07/26 06:18:14;;;;;;;12.55;1.50;;;;;;;;;;4934700;28;20046;-68
2022/07/26 06:20:42;;;;;;;11.77;1.45;;;;;;;;;;4930776;28;20100;-68
2022/07/26 06:23:10;;;;;;;8.13;1.45;;;;;;;;;;4930160;28;20350;-70
2022/07/26 06:25:35;;;;;;;14.30;1.60;;;;;;;;;;4929340;28;20104;-69
2022/07/26 06:28:02;;;;;;;6.10;1.33;;;;;;;;;;4929585;28;20233;-69
2022/07/26 06:30:28;;;;;;;7.30;1.25;;;;;;;;;;4931265;28;20058;-69
2022/07/26 06:32:56;;;;;;;7.40;1.38;;;;;;;;;;4930832;28;20367;-68
2022/07/26 06:35:22;;;;;;;8.25;1.42;;;;;;;;;;4931404;28;20327;-68
2022/07/26 06:37:48;;;;;;;8.88;1.30;;;;;;;;;;4927785;28;20026;-69
2022/07/26 06:40:13;;;;;;;8.70;1.00;;;;;;;;;;4931768;28;20530;-70
2022/07/26 06:42:39;;;;;;;6.88;1.00;;;;;;;;;;4943968;28;21126;-69
2022/07/26 06:45:04;;;;;;;5.75;0.80;;;;;;;;;;4931038;28;21709;-70
2022/07/26 06:47:30;;;;;;;6.35;0.90;;;;;;;;;;4930464;28;20027;-72
2022/07/26 06:50:00;;;;;;;6.68;1.02;;;;;;;;;;4938171;28;20031;-70
2022/07/26 06:52:25;;;;;;;8.23;1.10;;;;;;;;;;4932507;28;20030;-70
2022/07/26 06:54:50;;;;;;;8.27;1.00;;;;;;;;;;4931087;28;20054;-68
2022/07/26 06:57:16;;;;;;;6.43;0.88;;;;;;;;;;4932640;28;20065;-69
2022/07/26 06:59:41;;;;;;;7.07;1.20;;;;;;;;;;4929590;28;20070;-70
2022/07/26 07:02:07;;;;;;;6.18;0.90;;;;;;;;;;4933212;28;20034;-69
2022/07/26 07:04:32;;;;;;;11.20;1.27;;;;;;;;;;4933575;28;20085;-71
2022/07/26 07:07:01;;;;;;;8.15;1.10;;;;;;;;;;4930028;28;20130;-70
2022/07/26 07:09:27;;;;;;;8.52;1.08;;;;;;;;;;4930674;28;20050;-71
2022/07/26 07:11:53;;;;;;;9.85;1.58;;;;;;;;;;4928848;28;20594;-70
2022/07/26 07:14:20;;;;;;;11.68;1.23;;;;;;;;;;4929940;28;20034;-71
2022/07/26 07:16:49;;;;;;;13.05;1.00;;;;;;;;;;4929576;28;20294;-70
2022/07/26 07:19:14;;;;;;;10.60;1.48;;;;;;;;;;4935195;28;20069;-71
2022/07/26 07:21:39;;;;;;;8.82;1.48;;;;;;;;;;4930491;28;20034;-70
2022/07/26 07:24:05;;;;;;;7.82;1.30;;;;;;;;;;4929635;28;20035;-71
2022/07/26 07:26:32;;;;;;;8.00;1.00;;;;;;;;;;4928824;28;20378;-70
2022/07/26 07:29:00;;;;;;;11.38;1.35;;;;;;;;;;4926547;28;20049;-70
2022/07/26 07:31:25;;;;;;;9.48;0.90;;;;;;;;;;4918837;28;20039;-71
2022/07/26 07:33:50;;;;;;;6.20;1.00;;;;;;;;;;4926842;28;20499;-69
2022/07/26 07:36:16;;;;;;;8.55;1.40;;;;;;;;;;4926793;28;20054;-71
2022/07/26 07:38:43;;;;;;;9.60;1.38;;;;;;;;;;4927167;28;20362;-70
2022/07/26 07:41:12;;;;;;;7.65;1.05;;;;;;;;;;4926992;28;20558;-72
2022/07/26 07:43:40;;;;;;;7.03;1.00;;;;;;;;;;4941831;28;20389;-70
2022/07/26 07:46:05;;;;;;;7.75;1.10;;;;;;;;;;4931651;28;20290;-72
2022/07/26 07:48:31;;;;;;;6.70;1.10;;;;;;;;;;4927354;28;20480;-70
2022/07/26 07:50:58;;;;;;;7.57;1.25;;;;;;;;;;4928807;28;20498;-72
2022/07/26 07:53:24;;;;;;;10.32;1.52;;;;;;;;;;4928935;28;20042;-71
2022/07/26 07:55:49;;;;;;;10.05;1.30;;;;;;;;;;4943046;28;20137;-74
2022/07/26 07:58:15;;;;;;;10.07;1.77;;;;;;;;;;4928595;28;20479;-72
2022/07/26 08:00:40;;;;;;;13.57;1.67;;;;;;;;;;4930053;28;20637;-71
2022/07/26 08:03:08;;;;;;;14.70;1.73;;;;;;;;;;4924586;28;20049;-71
2022/07/26 08:05:33;;;;;;;11.40;1.17;;;;;;;;;;4929803;28;22234;-71
2022/07/26 08:07:59;;;;;;;9.27;1.23;;;;;;;;;;4931914;28;20125;-71
2022/07/26 08:10:24;;;;;;;13.57;1.88;;;;;;;;;;4932026;28;20031;-70
2022/07/26 08:12:50;;;;;;;6.80;1.20;;;;;;;;;;4932843;28;20638;-71
2022/07/26 08:15:15;;;;;;;8.02;1.42;;;;;;;;;;4937901;28;20031;-72
2022/07/26 08:17:40;;;;;;;10.75;1.35;;;;;;;;;;4933401;28;20046;-71
2022/07/26 08:20:06;;;;;;;12.85;1.88;;;;;;;;;;4932166;28;20141;-71
2022/07/26 08:22:34;;;;;;;11.32;1.20;;;;;;;;;;4932325;28;20039;-72
2022/07/26 08:24:59;;;;;;;5.55;1.20;;;;;;;;;;4929271;28;20031;-70
2022/07/26 08:27:26;;;;;;;8.18;1.98;;;;;;;;;;4931249;28;20041;-71
2022/07/26 08:29:52;;;;;;;9.75;1.42;;;;;;;;;;4930762;28;20035;-70
2022/07/26 08:32:19;;;;;;;9.73;1.38;;;;;;;;;;4920921;28;20041;-71
2022/07/26 08:34:45;;;;;;;8.75;1.70;;;;;;;;;;4930715;28;20088;-70
2022/07/26 08:37:13;;;;;;;10.00;1.70;;;;;;;;;;4930756;28;20744;-71
2022/07/26 08:39:40;;;;;;;11.52;1.60;;;;;;;;;;4919185;28;20057;-71
2022/07/26 08:42:11;;;;;;;10.63;1.60;;;;;;;;;;4930642;28;20031;-70
2022/07/26 08:44:39;;;;;;;8.10;1.48;;;;;;;;;;4931084;28;20041;-71
2022/07/26 08:47:05;;;;;;;7.65;1.30;;;;;;;;;;4929892;28;20064;-72
2022/07/26 08:49:30;;;;;;;11.23;1.58;;;;;;;;;;4930992;28;20070;-72
2022/07/26 08:51:58;;;;;;;12.18;1.88;;;;;;;;;;4932186;28;20114;-69
2022/07/26 08:54:25;;;;;;;12.27;1.77;;;;;;;;;;4939049;28;20201;-70
2022/07/26 08:56:53;;;;;;;11.70;1.48;;;;;;;;;;4934243;28;20043;-69
2022/07/26 08:59:21;;;;;;;8.48;1.20;;;;;;;;;;4934124;28;20038;-66
2022/07/26 09:01:50;;;;;;;7.53;1.17;;;;;;;;;;4935112;28;20787;-69
2022/07/26 09:04:19;;;;;;;7.57;1.25;;;;;;;;;;4933733;28;20038;-70
2022/07/26 09:06:58;;;;;;;10.13;1.65;;;;;;;;;;4941218;28;20128;-70
2022/07/26 09:09:24;;;;;;;7.10;1.15;;;;;;;;;;4933841;28;22592;-71
2022/07/26 09:11:49;;;;;;;9.77;1.40;;;;;;;;;;4934545;28;20129;-72
2022/07/26 09:14:15;;;;;;;9.05;1.40;;;;;;;;;;4932017;28;20590;-70
2022/07/26 09:16:40;;;;;;;13.38;1.63;;;;;;;;;;4923781;28;20042;-72
2022/07/26 09:19:20;;;;;;;11.95;1.70;;;;;;;;;;4935577;28;20077;-70
2022/07/26 09:21:45;;;;;;;9.23;1.80;;;;;;;;;;4933750;28;20081;-72
2022/07/26 09:24:11;;;;;;;9.68;1.40;;;;;;;;;;4937196;28;20038;-71
2022/07/26 09:26:39;;;;;;;15.27;2.20;;;;;;;;;;4934739;28;20050;-71
2022/07/26 09:29:04;;;;;;;13.07;2.60;;;;;;;;;;4932937;28;20199;-70
2022/07/26 09:31:32;;;;;;;16.70;2.30;;;;;;;;;;4940048;28;20038;-69
2022/07/26 09:33:58;;;;;;;12.70;2.08;;;;;;;;;;4935024;28;20043;-68
2022/07/26 09:36:24;;;;;;;11.75;1.90;;;;;;;;;;4949910;28;20106;-69
2022/07/26 09:38:51;;;;;;;17.80;2.45;;;;;;;;;;4934537;28;20057;-69
2022/07/26 09:41:17;;;;;;;14.30;2.13;;;;;;;;;;4935053;28;20035;-71
2022/07/26 09:43:44;;;;;;;12.18;2.10;;;;;;;;;;4946135;28;20097;-70
2022/07/26 09:46:10;;;;;;;12.45;1.70;;;;;;;;;;4931077;28;20938;-70
2022/07/26 09:48:38;;;;;;;11.75;2.17;;;;;;;;;;4928834;28;20051;-68
2022/07/26 09:51:04;;;;;;;14.02;2.50;;;;;;;;;;4936913;28;20140;-70
2022/07/26 09:53:37;;;;;;;13.82;2.20;;;;;;;;;;4933882;28;22325;-70
2022/07/26 09:56:03;;;;;;;13.90;2.33;;;;;;;;;;4934271;28;20810;-71
2022/07/26 09:58:33;;;;;;;16.08;2.45;;;;;;;;;;4933906;28;20042;-70
2022/07/26 10:00:58;;;;;;;14.80;1.98;;;;;;;;;;4935973;28;20034;-71
2022/07/26 10:03:23;;;;;;;21.70;2.60;;;;;;;;;;4937211;28;20046;-69
2022/07/26 10:05:48;;;;;;;11.93;1.80;;;;;;;;;;4933378;28;22789;-69
2022/07/26 10:08:14;;;;;;;14.88;1.75;;;;;;;;;;4933538;28;20042;-70
2022/07/26 10:10:39;;;;;;;10.88;2.08;;;;;;;;;;4933862;28;21065;-70
2022/07/26 10:13:06;;;;;;;7.45;1.90;;;;;;;;;;4933382;28;20038;-71
2022/07/26 10:15:32;;;;;;;9.73;1.65;;;;;;;;;;4934190;28;20097;-71
2022/07/26 10:17:57;;;;;;;12.68;2.22;;;;;;;;;;4934997;28;20043;-71
2022/07/26 10:20:39;;;;;;;13.23;1.77;;;;;;;;;;4935298;28;20035;-71
2022/07/26 10:23:25;;;;;;;11.98;2.00;;;;;;;;;;4934401;28;20045;-71
2022/07/26 10:25:53;;;;;;;11.75;2.05;;;;;;;;;;4933606;28;20053;-68
2022/07/26 10:28:25;;;;;;;11.23;1.60;;;;;;;;;;4932070;28;20041;-69
2022/07/26 10:30:51;;;;;;;8.98;2.22;;;;;;;;;;4933617;28;20040;-68
2022/07/26 10:33:17;;;;;;;17.00;2.60;;;;;;;;;;4937117;28;20922;-67
2022/07/26 10:35:42;;;;;;;12.75;2.15;;;;;;;;;;4945632;28;20518;-67
2022/07/26 10:38:07;;;;;;;11.98;1.95;;;;;;;;;;4931645;28;20168;-67
2022/07/26 10:40:33;;;;;;;9.68;1.75;;;;;;;;;;4932237;28;20342;-66
2022/07/26 10:43:07;;;;;;;16.10;1.80;;;;;;;;;;4931642;28;20026;-67
2022/07/26 10:45:33;;;;;;;12.30;1.75;;;;;;;;;;4932075;28;20433;-68
2022/07/26 10:48:11;;;;;;;9.98;1.73;;;;;;;;;;4934483;28;20035;-69
2022/07/26 10:50:36;;;;;;;12.55;1.75;;;;;;;;;;4932662;28;20316;-67
2022/07/26 10:53:02;;;;;;;10.77;1.75;;;;;;;;;;4931874;28;20045;-68
2022/07/26 10:55:27;;;;;;;13.52;2.10;;;;;;;;;;4931112;28;20035;-68
2022/07/26 10:57:54;;;;;;;7.57;1.73;;;;;;;;;;4931983;28;20034;-68
2022/07/26 11:00:24;;;;;;;14.77;2.10;;;;;;;;;;4934505;28;20023;-67
2022/07/26 11:02:54;;;;;;;14.30;1.85;;;;;;;;;;4933037;28;20173;-67
2022/07/26 11:05:27;;;;;;;8.23;1.63;;;;;;;;;;4934266;28;20041;-73
2022/07/26 11:08:00;;;;;;;8.18;1.65;;;;;;;;;;4933701;28;20073;-71
2022/07/26 11:10:32;;;;;;;10.35;1.60;;;;;;;;;;4929196;28;20129;-71
2022/07/26 11:12:59;;;;;;;11.38;1.73;;;;;;;;;;4929811;28;20121;-70
2022/07/26 11:15:27;;;;;;;7.75;1.52;;;;;;;;;;4930798;28;21704;-71
2022/07/26 11:18:07;;;;;;;9.10;1.83;;;;;;;;;;4929346;28;20077;-70
2022/07/26 11:20:32;;;;;;;15.95;1.95;;;;;;;;;;4931989;28;20073;-71
2022/07/26 11:22:58;;;;;;;13.57;1.77;;;;;;;;;;4933550;28;20066;-71
2022/07/26 11:25:23;;;;;;;9.20;1.58;;;;;;;;;;4919740;28;20776;-74
2022/07/26 11:27:57;;;;;;;7.22;1.30;;;;;;;;;;4932119;28;20031;-73
2022/07/26 11:30:22;;;;;;;8.07;1.60;;;;;;;;;;4928889;28;20043;-72
2022/07/26 11:32:52;;;;;;;10.93;1.52;;;;;;;;;;4941241;28;22342;-71
2022/07/26 11:35:20;;;;;;;7.55;1.45;;;;;;;;;;4931748;28;20031;-69
2022/07/26 11:37:52;;;;;;;9.98;1.70;;;;;;;;;;4931077;28;20065;-72
2022/07/26 11:40:38;;;;;;;9.05;1.35;;;;;;;;;;4931439;28;20077;-69
2022/07/26 11:43:03;;;;;;;6.60;1.05;;;;;;;;;;4931065;28;20050;-69
2022/07/26 11:45:29;;;;;;;7.93;1.30;;;;;;;;;;4934655;28;20035;-71
2022/07/26 11:47:56;;;;;;;8.63;1.33;;;;;;;;;;4930738;28;20045;-69
2022/07/26 11:50:21;;;;;;;12.57;1.80;;;;;;;;;;4931837;28;20053;-70
2022/07/26 11:52:50;;;;;;;9.75;1.40;;;;;;;;;;4931023;28;20042;-69
2022/07/26 11:55:24;;;;;;;10.30;1.55;;;;;;;;;;4931378;28;21038;-70
2022/07/26 11:57:53;;;;;;;6.22;1.15;;;;;;;;;;4931769;28;20031;-68
2022/07/26 12:00:19;;;;;;;6.57;1.23;;;;;;;;;;4931093;28;20872;-69
2022/07/26 12:02:45;;;;;;;9.45;1.52;;;;;;;;;;4931538;28;21268;-67
2022/07/26 12:05:18;;;;;;;9.43;1.55;;;;;;;;;;4931680;28;20142;-71
2022/07/26 12:08:01;;;;;;;10.77;1.60;;;;;;;;;;4931022;28;20129;-72
2022/07/26 12:10:26;;;;;;;8.23;1.33;;;;;;;;;;4931120;28;20507;-71
2022/07/26 12:13:05;;;;;;;6.55;1.23;;;;;;;;;;4932398;28;20031;-72
2022/07/26 12:15:42;;;;;;;9.20;1.77;;;;;;;;;;4931437;28;20039;-70
2022/07/26 12:18:07;;;;;;;7.20;1.30;;;;;;;;;;4930810;28;20034;-69
2022/07/26 12:20:34;;;;;;;8.27;1.20;;;;;;;;;;4931923;28;20081;-69
2022/07/26 12:23:04;;;;;;;8.30;1.52;;;;;;;;;;4930853;28;20660;-71
2022/07/26 12:25:36;;;;;;;10.05;1.88;;;;;;;;;;4933069;28;20038;-72
2022/07/26 12:28:05;;;;;;;;;;;;;;;;;;4935020;28;20027;-72
2022/07/26 12:30:34;;;;;;;9.80;1.70;;;;;;;;;;4934571;28;20581;-70
2022/07/26 12:33:00;;;;;;;6.20;1.55;;;;;;;;;;4934144;28;20248;-70
2022/07/26 12:35:36;;;;;;;12.45;1.60;;;;;;;;;;4927676;28;20137;-71
2022/07/26 12:38:02;;;;;;;12.07;1.73;;;;;;;;;;4933887;28;20192;-68
2022/07/26 12:40:29;;;;;;;11.20;1.65;;;;;;;;;;4934680;28;20030;-71
2022/07/26 12:42:58;;;;;;;10.55;1.75;;;;;;;;;;4935055;28;20076;-72
2022/07/26 12:45:27;;;;;;;13.40;2.30;;;;;;;;;;4936726;28;20940;-71
2022/07/26 12:47:54;;;;;;;14.38;2.10;;;;;;;;;;4934882;28;20854;-68
2022/07/26 12:50:21;;;;;;;10.85;2.10;;;;;;;;;;4936828;28;20667;-68
2022/07/26 12:52:47;;;;;;;14.77;2.30;;;;;;;;;;4934115;28;20038;-66
2022/07/26 12:55:15;;;;;;;12.10;1.90;;;;;;;;;;4940792;28;20047;-67
2022/07/26 12:57:49;;;;;;;15.95;2.20;;;;;;;;;;4935140;28;20038;-66
2022/07/26 13:00:17;;;;;;;15.45;2.00;;;;;;;;;;4934828;28;20126;-67
2022/07/26 13:02:42;;;;;;;20.60;2.80;;;;;;;;;;4948034;28;20973;-67
2022/07/26 13:05:10;;;;;;;15.13;2.67;;;;;;;;;;4921248;28;20117;-67
2022/07/26 13:07:36;;;;;;;12.00;1.85;;;;;;;;;;4933347;28;20114;-67
2022/07/26 13:10:01;;;;;;;12.93;2.25;;;;;;;;;;4932692;28;21069;-67
2022/07/26 13:12:26;;;;;;;16.10;2.40;;;;;;;;;;4934587;28;20027;-66
2022/07/26 13:14:51;;;;;;;14.65;2.05;;;;;;;;;;4933381;28;20108;-66
2022/07/26 13:17:16;;;;;;;14.82;1.83;;;;;;;;;;4934121;28;20058;-66
2022/07/26 13:19:42;;;;;;;15.68;2.40;;;;;;;;;;4935261;28;20901;-65
2022/07/26 13:22:10;;;;;;;16.85;2.28;;;;;;;;;;4932967;28;20482;-66
2022/07/26 13:24:36;;;;;;;6.72;1.30;;;;;;;;;;4934655;28;20038;-66
2022/07/26 13:27:08;;;;;;;8.32;1.80;;;;;;;;;;4932216;28;20926;-66
2022/07/26 13:29:33;;;;;;;9.85;1.60;;;;;;;;;;4931452;28;20066;-67
2022/07/26 13:31:59;;;;;;;15.43;2.08;;;;;;;;;;4932070;28;20433;-66
2022/07/26 13:34:25;;;;;;;8.95;1.58;;;;;;;;;;4930642;28;20386;-67
2022/07/26 13:36:50;;;;;;;14.30;2.30;;;;;;;;;;4931178;28;20416;-67
2022/07/26 13:39:18;;;;;;;12.10;1.90;;;;;;;;;;4931524;28;20047;-66
2022/07/26 13:41:43;;;;;;;8.93;1.55;;;;;;;;;;4932736;28;20358;-69
2022/07/26 13:44:08;;;;;;;11.10;1.55;;;;;;;;;;4932580;28;20324;-68
2022/07/26 13:46:34;;;;;;;14.25;1.80;;;;;;;;;;4930878;28;20050;-67
2022/07/26 13:48:59;;;;;;;8.98;1.60;;;;;;;;;;4930857;28;20043;-67
2022/07/26 13:51:55;;;;;;;9.23;1.60;;;;;;;;;;4930840;28;20451;-67
2022/07/26 13:54:17;;;;;;;11.05;1.85;;;;;;;;;;4931173;28;20073;-66
2022/07/26 13:56:42;;;;;;;10.35;1.50;;;;;;;;;;4935722;28;20189;-66
2022/07/26 13:59:07;;;;;;;10.20;1.63;;;;;;;;;;4931728;28;21834;-67
2022/07/26 14:01:33;;;;;;;12.95;1.60;;;;;;;;;;4931789;28;20039;-66
2022/07/26 14:03:58;;;;;;;9.35;1.50;;;;;;;;;;4930559;28;20146;-65
2022/07/26 14:06:26;;;;;;;14.10;1.75;;;;;;;;;;4931513;28;20047;-67
2022/07/26 14:08:51;;;;;;;8.95;1.38;;;;;;;;;;4932629;28;20444;-66
2022/07/26 14:11:17;;;;;;;10.50;1.33;;;;;;;;;;4933126;28;20508;-66
2022/07/26 14:13:42;;;;;;;10.68;1.73;;;;;;;;;;4931770;28;20042;-68
2022/07/26 14:16:08;;;;;;;9.23;1.40;;;;;;;;;;4930794;28;20081;-67
2022/07/26 14:18:33;;;;;;;10.73;1.40;;;;;;;;;;4932127;28;20509;-67
2022/07/26 14:20:58;;;;;;;10.48;1.38;;;;;;;;;;4933085;28;20039;-67
2022/07/26 14:23:26;;;;;;;11.30;1.60;;;;;;;;;;4931621;28;20046;-67
2022/07/26 14:25:54;;;;;;;7.25;1.23;;;;;;;;;;4933252;28;20042;-66
2022/07/26 14:28:19;;;;;;;10.88;1.60;;;;;;;;;;4932443;28;22325;-66
2022/07/26 14:30:44;;;;;;;10.25;1.33;;;;;;;;;;4933090;28;20030;-64
2022/07/26 14:33:09;;;;;;;6.43;1.08;;;;;;;;;;4945079;28;20392;-64